Hypoluxo, Florida
Current Conditions -  °F | °C
As of 5:53 PM on Tuesday 27 Jan 2015 (Local Time) from KPBI Reporting Station
Few Clouds Few Clouds  
Wind Chill: 67°   Ceiling: Unl
Heat Index: 67°   Visibility: 10mi
Dew Point: 43°   Wind: 10mph
Humidity: 42%   Direction: 250°WSW
Pressure: 29.96"   Gusts: NA
Location:  26.5758°N, 80.0835°W
Report Text: KPBI 272253Z 25009KT 10SM FEW250 19/06 A2996 RMK AO2 SLP146 T01940061
Loading
Personal Weather Stations






























Interactive Weather Map New forecast layout! Learn more

10-Day Weather Forecast

Advertisements
Track Severe Weather on mobile